Terminal Aerodrome Forecast
Issued by NWS Lake Charles, LA

Home | Current Version | Previous Version | Text Only | Print | Product List | Glossary On
Versions: 1 2 3 4 5 6 7 8 9 10 11 12 13 14 15 16 17 18
000
FTUS44 KLCH 241128
TAFAEX
TAF
KAEX 241128Z 2412/2512 15012KT P6SM SCT015 BKN025 OVC035
     FM241500 15014G20KT P6SM BKN025 BKN250
     FM241900 16018G26KT P6SM BKN035 BKN250
     FM242300 17015G22KT P6SM VCSH BKN025 BKN040
     FM250500 16016G21KT 2SM +TSRA BKN009CB OVC015=

USA.gov is the U.S. government's official web portal to all federal, state and local government web resources and services.